createdAt,value
2023-01-31T00:01:29.698Z,3.00
2023-01-31T00:04:05.600Z,3.17
2023-01-31T00:06:35.485Z,2.57
2023-01-31T00:09:04.380Z,4.00
2023-01-31T00:11:32.673Z,2.80
2023-01-31T00:14:02.237Z,2.87
2023-01-31T00:16:29.927Z,4.43
2023-01-31T00:18:57.620Z,3.73
2023-01-31T00:21:29.906Z,2.90
2023-01-31T00:23:59.564Z,3.37
2023-01-31T00:26:30.111Z,2.93
2023-01-31T00:28:59.614Z,2.60
2023-01-31T00:31:29.282Z,2.93
2023-01-31T00:33:57.443Z,3.30
2023-01-31T00:36:28.957Z,2.70
2023-01-31T00:38:58.638Z,3.03
2023-01-31T00:41:27.992Z,3.87
2023-01-31T00:43:55.739Z,4.50
2023-01-31T00:46:24.839Z,3.50
2023-01-31T00:48:53.087Z,3.83
2023-01-31T00:51:22.313Z,3.37
2023-01-31T00:53:51.543Z,3.70
2023-01-31T00:56:23.129Z,5.27
2023-01-31T00:58:51.726Z,4.87
2023-01-31T01:01:23.035Z,4.17
2023-01-31T01:03:52.123Z,3.90
2023-01-31T01:06:20.556Z,3.60
2023-01-31T01:08:49.065Z,3.57
2023-01-31T01:11:21.452Z,3.47
2023-01-31T01:13:49.577Z,5.13
2023-01-31T01:16:20.388Z,3.77
2023-01-31T01:18:49.272Z,4.57
2023-01-31T01:21:19.347Z,3.63
2023-01-31T01:23:48.110Z,4.87
2023-01-31T01:26:19.108Z,3.93
2023-01-31T01:28:47.245Z,3.60
2023-01-31T01:31:17.509Z,3.83
2023-01-31T01:33:46.921Z,3.77
2023-01-31T01:36:18.199Z,3.93
2023-01-31T01:38:46.746Z,3.77
2023-01-31T01:41:15.883Z,5.60
2023-01-31T01:43:47.154Z,3.13
2023-01-31T01:46:19.611Z,3.90
2023-01-31T01:48:51.939Z,3.33
2023-01-31T01:51:21.432Z,4.33
2023-01-31T01:53:53.908Z,4.43
2023-01-31T01:56:26.147Z,4.07
2023-01-31T01:59:02.414Z,3.73
2023-01-31T02:01:34.814Z,3.83
2023-01-31T02:04:11.606Z,2.53
2023-01-31T02:06:40.006Z,3.90
2023-01-31T02:09:14.647Z,3.10
2023-01-31T02:11:43.820Z,2.80
2023-01-31T02:14:13.522Z,3.60
2023-01-31T02:16:41.198Z,3.80
2023-01-31T02:19:36.946Z,4.00
2023-01-31T02:22:17.687Z,3.73
2023-01-31T02:25:12.105Z,6.47
2023-01-31T02:28:10.202Z,3.33
2023-01-31T02:31:01.330Z,3.67
2023-01-31T02:33:39.464Z,3.63
2023-01-31T02:36:19.761Z,4.63
2023-01-31T02:39:01.496Z,4.70
2023-01-31T02:41:37.164Z,4.57
2023-01-31T02:44:42.622Z,5.37
2023-01-31T02:47:20.884Z,3.60
2023-01-31T02:49:56.439Z,5.30
2023-01-31T02:52:33.513Z,4.47
2023-01-31T02:55:29.943Z,5.20
2023-01-31T02:58:01.773Z,3.80
2023-01-31T03:00:33.037Z,3.50
2023-01-31T03:03:01.076Z,5.13
2023-01-31T03:05:31.093Z,4.37
2023-01-31T03:08:05.314Z,5.67
2023-01-31T03:10:58.002Z,5.23
2023-01-31T03:13:36.890Z,4.30
2023-01-31T03:16:33.860Z,3.60
2023-01-31T03:19:13.795Z,4.43
2023-01-31T03:21:48.427Z,3.83
2023-01-31T03:24:18.200Z,5.53
2023-01-31T03:26:48.103Z,3.83
2023-01-31T03:29:18.603Z,3.73
2023-01-31T03:31:54.513Z,3.63
2023-01-31T03:34:22.283Z,4.43
2023-01-31T03:36:56.986Z,4.20
2023-01-31T03:39:41.181Z,3.80
2023-01-31T03:42:18.639Z,3.50
2023-01-31T03:44:57.244Z,4.90
2023-01-31T03:47:30.306Z,3.50
2023-01-31T03:50:02.486Z,3.37
2023-01-31T03:52:36.170Z,4.30
2023-01-31T03:55:09.157Z,5.33
2023-01-31T03:57:42.458Z,4.40
2023-01-31T04:00:16.359Z,5.20
2023-01-31T04:02:55.404Z,4.93
2023-01-31T04:05:30.496Z,4.13
2023-01-31T04:08:01.382Z,4.23
2023-01-31T04:10:32.266Z,4.50
2023-01-31T04:13:01.712Z,4.80
2023-01-31T04:15:29.475Z,4.30
2023-01-31T04:17:57.136Z,5.60
2023-01-31T04:20:25.134Z,4.43
2023-01-31T04:22:53.051Z,4.27
2023-01-31T04:25:22.371Z,3.73
2023-01-31T04:27:51.869Z,4.97
2023-01-31T04:30:19.711Z,4.27
2023-01-31T04:32:48.525Z,4.90
2023-01-31T04:35:16.339Z,5.10
2023-01-31T04:37:44.390Z,5.33
2023-01-31T04:40:13.887Z,6.00
2023-01-31T04:42:43.197Z,6.07
2023-01-31T04:45:12.005Z,5.23
2023-01-31T04:47:39.916Z,5.03
2023-01-31T04:50:08.834Z,5.93
2023-01-31T04:52:36.997Z,5.20
2023-01-31T04:55:04.856Z,4.77
2023-01-31T04:57:32.854Z,5.00
2023-01-31T05:00:01.830Z,5.77
2023-01-31T05:02:31.994Z,4.03
2023-01-31T05:05:00.133Z,4.57
2023-01-31T05:07:27.764Z,4.53
2023-01-31T05:09:55.709Z,5.43
2023-01-31T05:12:23.515Z,4.87
2023-01-31T05:14:52.434Z,4.07
2023-01-31T05:17:26.701Z,4.70
2023-01-31T05:19:54.663Z,4.67
2023-01-31T05:22:22.978Z,3.67
2023-01-31T05:24:52.048Z,4.77
2023-01-31T05:27:20.349Z,4.47
2023-01-31T05:29:48.193Z,3.80
2023-01-31T05:32:17.662Z,5.97
2023-01-31T05:34:46.738Z,3.70
2023-01-31T05:37:14.344Z,3.60
2023-01-31T05:39:43.084Z,3.43
2023-01-31T05:42:10.743Z,5.10
2023-01-31T05:44:38.876Z,4.33
2023-01-31T05:47:06.531Z,3.60
2023-01-31T05:49:34.736Z,3.70
2023-01-31T05:52:03.644Z,4.10
2023-01-31T05:54:32.556Z,4.63
2023-01-31T05:57:00.331Z,2.83
2023-01-31T05:59:31.125Z,3.20
2023-01-31T06:01:58.789Z,4.60
2023-01-31T06:04:26.441Z,3.73
2023-01-31T06:06:54.010Z,3.60
2023-01-31T06:09:23.388Z,4.80
2023-01-31T06:11:50.976Z,3.00
2023-01-31T06:14:18.989Z,4.00
2023-01-31T06:16:46.717Z,3.47
2023-01-31T06:19:14.813Z,4.60
2023-01-31T06:21:43.015Z,4.70
2023-01-31T06:24:11.008Z,5.57
2023-01-31T06:26:39.999Z,4.20
2023-01-31T06:29:09.578Z,3.17
2023-01-31T06:31:37.341Z,2.97
2023-01-31T06:34:04.952Z,3.80
2023-01-31T06:36:34.062Z,5.83
2023-01-31T06:39:01.747Z,4.60
2023-01-31T06:41:29.789Z,3.13
2023-01-31T06:43:58.794Z,4.27
2023-01-31T06:46:27.046Z,3.37
2023-01-31T06:48:54.749Z,4.83
2023-01-31T06:51:22.829Z,4.07
2023-01-31T06:53:51.185Z,4.33
2023-01-31T06:56:19.111Z,4.43
2023-01-31T06:58:46.705Z,3.33
2023-01-31T07:01:16.733Z,4.17
2023-01-31T07:03:44.387Z,4.50
2023-01-31T07:06:13.718Z,4.20
2023-01-31T07:08:41.371Z,6.00
2023-01-31T07:11:09.411Z,3.60
2023-01-31T07:13:37.243Z,3.37
2023-01-31T07:16:05.689Z,4.97
2023-01-31T07:18:34.645Z,5.97
2023-01-31T07:21:02.255Z,3.03
2023-01-31T07:23:30.119Z,2.90
2023-01-31T07:25:58.510Z,4.47
2023-01-31T07:28:26.092Z,2.97
2023-01-31T07:30:53.982Z,3.77
2023-01-31T07:33:21.620Z,3.37
2023-01-31T07:35:51.343Z,3.03
2023-01-31T07:38:19.067Z,3.07
2023-01-31T07:40:46.808Z,3.27
2023-01-31T07:43:14.412Z,2.47
2023-01-31T07:45:42.897Z,3.30
2023-01-31T07:48:10.756Z,2.40
2023-01-31T07:50:39.159Z,3.50
2023-01-31T07:53:08.070Z,3.27
2023-01-31T07:55:36.157Z,3.77
2023-01-31T07:58:03.777Z,3.43
2023-01-31T08:00:49.191Z,3.13
2023-01-31T08:03:34.401Z,3.67
2023-01-31T08:06:04.513Z,3.23
2023-01-31T08:08:34.219Z,3.87
2023-01-31T08:11:02.516Z,3.03
2023-01-31T08:13:30.590Z,2.90
2023-01-31T08:15:58.911Z,2.83
2023-01-31T08:18:26.738Z,3.20
2023-01-31T08:20:55.335Z,2.30
2023-01-31T08:23:23.449Z,3.83
2023-01-31T08:25:52.562Z,2.97
2023-01-31T08:28:20.155Z,2.53
2023-01-31T08:30:59.232Z,2.33
2023-01-31T08:33:34.402Z,3.27
2023-01-31T08:36:09.701Z,2.63
2023-01-31T08:38:37.309Z,2.60
2023-01-31T08:41:07.057Z,2.80
2023-01-31T08:43:45.655Z,2.60
2023-01-31T08:46:22.416Z,2.40
2023-01-31T08:48:50.028Z,2.70
2023-01-31T08:51:18.425Z,2.43
2023-01-31T08:53:46.324Z,3.27
2023-01-31T08:56:16.683Z,2.33
2023-01-31T08:58:46.107Z,2.20
2023-01-31T09:01:15.748Z,2.77
2023-01-31T09:03:45.411Z,3.00
2023-01-31T09:06:16.255Z,3.10
2023-01-31T09:08:44.050Z,2.30
2023-01-31T09:11:17.337Z,1.80
2023-01-31T09:13:47.836Z,2.40
2023-01-31T09:16:15.910Z,2.67
2023-01-31T09:18:44.468Z,1.97
2023-01-31T09:21:13.758Z,2.33
2023-01-31T09:23:42.808Z,2.63
2023-01-31T09:26:11.780Z,2.60
2023-01-31T09:28:42.647Z,2.27
2023-01-31T09:31:13.211Z,1.63
2023-01-31T09:33:41.612Z,1.73
2023-01-31T09:36:11.417Z,1.40
2023-01-31T09:38:40.506Z,1.70
2023-01-31T09:41:18.907Z,1.57
2023-01-31T09:43:52.055Z,2.33
2023-01-31T09:46:25.398Z,2.57
2023-01-31T09:48:57.322Z,1.73
2023-01-31T09:51:24.949Z,1.93
2023-01-31T09:53:52.613Z,2.57
2023-01-31T09:56:31.815Z,1.60
2023-01-31T09:59:06.006Z,3.67
2023-01-31T10:01:43.798Z,3.37
2023-01-31T10:04:30.865Z,1.80
2023-01-31T10:07:05.514Z,1.73
2023-01-31T10:09:38.377Z,2.37
2023-01-31T10:12:12.906Z,1.03
2023-01-31T10:14:47.735Z,1.57
2023-01-31T10:17:22.384Z,2.17
2023-01-31T10:19:56.064Z,2.07
2023-01-31T10:22:33.039Z,0.80
2023-01-31T10:25:09.184Z,1.50
2023-01-31T10:27:45.119Z,3.00
2023-01-31T10:30:19.287Z,2.33
2023-01-31T10:32:54.525Z,1.10
2023-01-31T10:35:25.545Z,2.47
2023-01-31T10:37:56.861Z,2.00
2023-01-31T10:40:31.688Z,2.27
2023-01-31T10:43:04.549Z,2.13
2023-01-31T10:45:34.079Z,1.53
2023-01-31T10:48:15.460Z,2.53
2023-01-31T10:50:55.114Z,2.33
2023-01-31T10:53:40.353Z,1.50
2023-01-31T10:56:10.555Z,2.17
2023-01-31T10:58:39.242Z,1.97
2023-01-31T11:01:11.870Z,2.13
2023-01-31T11:03:46.110Z,2.33
2023-01-31T11:06:13.884Z,2.17
2023-01-31T11:08:44.562Z,3.97
2023-01-31T11:11:14.072Z,1.93
2023-01-31T11:13:42.919Z,1.93
2023-01-31T11:16:13.165Z,1.77
2023-01-31T11:18:47.012Z,3.53
2023-01-31T11:21:23.561Z,2.53
2023-01-31T11:23:52.568Z,2.03
2023-01-31T11:26:30.159Z,1.70
2023-01-31T11:28:58.332Z,2.43
2023-01-31T11:31:31.434Z,2.23
2023-01-31T11:34:02.233Z,2.53
2023-01-31T11:36:33.879Z,2.97
2023-01-31T11:39:19.094Z,2.07
2023-01-31T11:41:49.297Z,1.93
2023-01-31T11:44:19.773Z,2.00
2023-01-31T11:46:52.944Z,1.57
2023-01-31T11:49:32.815Z,2.00
2023-01-31T11:52:04.060Z,2.17
2023-01-31T11:54:35.432Z,1.40
2023-01-31T11:57:03.695Z,1.80
2023-01-31T11:59:32.449Z,2.80
2023-01-31T12:02:02.071Z,2.80
2023-01-31T12:04:41.345Z,2.03
2023-01-31T12:07:23.881Z,1.47
2023-01-31T12:09:52.535Z,1.50
2023-01-31T12:12:29.779Z,2.47
2023-01-31T12:15:01.332Z,1.30
2023-01-31T12:17:31.671Z,2.17
2023-01-31T12:20:28.228Z,1.57
2023-01-31T12:23:08.209Z,2.43
2023-01-31T12:25:49.719Z,2.50
2023-01-31T12:28:29.959Z,2.03
2023-01-31T12:31:11.794Z,1.53
2023-01-31T12:33:54.279Z,2.20
2023-01-31T12:36:41.429Z,1.97
2023-01-31T12:39:20.107Z,1.37
2023-01-31T12:42:03.339Z,1.60
2023-01-31T12:44:43.422Z,2.10
2023-01-31T12:47:31.750Z,2.37
2023-01-31T12:50:14.981Z,1.93
2023-01-31T12:52:57.550Z,1.97
2023-01-31T12:55:34.162Z,2.30
2023-01-31T12:58:24.977Z,2.77
2023-01-31T13:01:02.153Z,2.67
2023-01-31T13:03:40.549Z,2.47
2023-01-31T13:06:15.677Z,2.00
2023-01-31T13:09:06.320Z,2.07
2023-01-31T13:11:41.957Z,3.13
2023-01-31T13:14:15.858Z,2.20
2023-01-31T13:16:46.336Z,2.27
2023-01-31T13:19:19.878Z,1.90
2023-01-31T13:21:49.808Z,2.77
2023-01-31T13:24:22.676Z,2.37
2023-01-31T13:26:55.825Z,2.33
2023-01-31T13:29:28.129Z,3.33
2023-01-31T13:32:00.771Z,2.17
2023-01-31T13:34:32.756Z,2.57
2023-01-31T13:37:03.773Z,3.70
2023-01-31T13:39:39.834Z,2.10
2023-01-31T13:42:07.554Z,2.43
2023-01-31T13:44:35.720Z,2.33
2023-01-31T13:47:13.254Z,2.67
2023-01-31T13:49:48.668Z,3.23
2023-01-31T13:52:22.702Z,2.10
2023-01-31T13:54:55.677Z,2.67
2023-01-31T13:57:27.050Z,2.50
2023-01-31T13:59:57.708Z,2.90
2023-01-31T14:02:25.503Z,3.33
2023-01-31T14:04:53.536Z,2.73
2023-01-31T14:07:23.927Z,2.33
2023-01-31T14:10:25.217Z,2.97
2023-01-31T14:13:27.884Z,2.43
2023-01-31T14:15:58.143Z,3.13
2023-01-31T14:18:39.943Z,2.67
2023-01-31T14:21:57.710Z,1.90
2023-01-31T14:25:05.253Z,3.40
2023-01-31T14:27:42.804Z,2.33
2023-01-31T14:30:24.405Z,2.43
2023-01-31T14:33:05.597Z,2.63
2023-01-31T14:35:48.696Z,1.50
2023-01-31T14:38:25.100Z,3.17
2023-01-31T14:41:04.522Z,3.90
2023-01-31T14:43:46.638Z,2.70
2023-01-31T14:46:32.374Z,2.87
2023-01-31T14:49:25.130Z,2.47
2023-01-31T14:52:11.080Z,3.80
2023-01-31T14:54:57.441Z,2.03
2023-01-31T14:57:28.860Z,3.23
2023-01-31T15:00:01.365Z,3.23
2023-01-31T15:02:57.238Z,1.50
2023-01-31T15:05:41.174Z,2.00
2023-01-31T15:08:43.833Z,2.23
2023-01-31T15:11:42.409Z,2.57
2023-01-31T15:14:35.810Z,2.40
2023-01-31T15:17:23.655Z,3.27
2023-01-31T15:20:15.384Z,3.13
2023-01-31T15:22:45.494Z,2.43
2023-01-31T15:25:25.386Z,2.43
2023-01-31T15:27:56.432Z,3.17
2023-01-31T15:30:25.662Z,3.73
2023-01-31T15:32:58.015Z,2.97
2023-01-31T15:35:30.949Z,2.63
2023-01-31T15:38:04.652Z,3.70
2023-01-31T15:40:32.880Z,3.20
2023-01-31T15:43:17.517Z,2.50
2023-01-31T15:45:45.322Z,3.37
2023-01-31T15:48:16.527Z,3.73
2023-01-31T15:50:54.503Z,3.10
2023-01-31T15:53:24.245Z,2.50
2023-01-31T15:55:55.064Z,3.43
2023-01-31T15:58:25.647Z,2.37
2023-01-31T16:00:55.871Z,3.57
2023-01-31T16:03:25.857Z,3.93
2023-01-31T16:05:57.544Z,3.10
2023-01-31T16:08:30.145Z,3.17
2023-01-31T16:10:59.140Z,2.63
2023-01-31T16:13:27.774Z,4.00
2023-01-31T16:15:55.641Z,4.90
2023-01-31T16:18:23.607Z,2.87
2023-01-31T16:20:53.392Z,3.47
2023-01-31T16:23:27.908Z,3.10
2023-01-31T16:26:02.445Z,6.37
2023-01-31T16:28:33.053Z,3.77
2023-01-31T16:31:10.449Z,3.27
2023-01-31T16:33:39.442Z,3.50
2023-01-31T16:36:15.070Z,3.50
2023-01-31T16:38:57.539Z,3.40
2023-01-31T16:41:40.907Z,4.47
2023-01-31T16:44:14.912Z,3.47
2023-01-31T16:46:45.397Z,3.63
2023-01-31T16:49:21.507Z,4.63
2023-01-31T16:51:50.285Z,3.20
2023-01-31T16:54:23.364Z,3.93
2023-01-31T16:57:20.740Z,3.93
2023-01-31T16:59:53.216Z,3.27
2023-01-31T17:02:27.042Z,4.20
2023-01-31T17:04:58.336Z,3.10
2023-01-31T17:07:30.161Z,4.03
2023-01-31T17:10:01.923Z,2.60
2023-01-31T17:12:31.797Z,3.67
2023-01-31T17:15:03.160Z,2.73
2023-01-31T17:17:37.340Z,3.13
2023-01-31T17:20:09.288Z,3.87
2023-01-31T17:22:36.927Z,3.47
2023-01-31T17:25:15.307Z,3.47
2023-01-31T17:27:42.895Z,2.30
2023-01-31T17:30:11.631Z,2.77
2023-01-31T17:32:40.024Z,2.27
2023-01-31T17:35:18.013Z,2.60
2023-01-31T17:37:45.704Z,2.30
2023-01-31T17:40:15.412Z,3.13
2023-01-31T17:42:43.447Z,2.43
2023-01-31T17:45:15.135Z,2.70
2023-01-31T17:47:42.825Z,3.30
2023-01-31T17:50:16.776Z,2.63
2023-01-31T17:52:44.736Z,1.97
2023-01-31T17:55:13.856Z,1.83
2023-01-31T17:57:42.825Z,2.33
2023-01-31T18:00:15.756Z,2.17
2023-01-31T18:02:43.638Z,2.73
2023-01-31T18:05:12.848Z,2.67
2023-01-31T18:07:41.107Z,2.27
2023-01-31T18:10:11.024Z,1.60
2023-01-31T18:12:38.889Z,3.10
2023-01-31T18:15:09.834Z,2.30
2023-01-31T18:17:37.455Z,2.73
2023-01-31T18:20:06.711Z,2.43
2023-01-31T18:22:34.398Z,3.60
2023-01-31T18:25:02.453Z,3.00
2023-01-31T18:27:30.015Z,2.37
2023-01-31T18:29:58.096Z,2.70
2023-01-31T18:32:27.102Z,3.30
2023-01-31T18:34:54.913Z,2.90
2023-01-31T18:37:22.507Z,1.73
2023-01-31T18:39:50.743Z,1.93
2023-01-31T18:42:19.030Z,2.80
2023-01-31T18:44:47.071Z,2.17
2023-01-31T18:47:15.869Z,2.70
2023-01-31T18:49:45.239Z,3.67
2023-01-31T18:52:12.940Z,2.20
2023-01-31T18:54:41.453Z,2.07
2023-01-31T18:57:09.206Z,2.67
2023-01-31T18:59:36.823Z,1.93
2023-01-31T19:02:04.536Z,2.40
2023-01-31T19:04:32.221Z,1.83
2023-01-31T19:07:01.892Z,1.60
2023-01-31T19:09:29.681Z,3.30
2023-01-31T19:11:57.255Z,1.87
2023-01-31T19:14:25.155Z,2.13
2023-01-31T19:16:53.034Z,2.53
2023-01-31T19:19:21.052Z,3.17
2023-01-31T19:21:48.651Z,1.47
2023-01-31T19:24:17.685Z,2.50
2023-01-31T19:26:45.708Z,2.20
2023-01-31T19:29:16.006Z,2.10
2023-01-31T19:31:44.757Z,2.70
2023-01-31T19:34:12.419Z,2.30
2023-01-31T19:36:41.691Z,2.33
2023-01-31T19:39:12.335Z,2.47
2023-01-31T19:41:42.352Z,3.63
2023-01-31T19:44:10.504Z,2.17
2023-01-31T19:46:38.923Z,2.43
2023-01-31T19:49:06.791Z,3.03
2023-01-31T19:51:35.416Z,2.33
2023-01-31T19:54:03.555Z,2.53
2023-01-31T19:56:33.027Z,3.37
2023-01-31T19:59:02.640Z,3.33
2023-01-31T20:01:30.372Z,2.93
2023-01-31T20:03:58.223Z,2.33
2023-01-31T20:06:29.244Z,3.17
2023-01-31T20:08:58.998Z,1.87
2023-01-31T20:11:29.072Z,2.50
2023-01-31T20:13:58.439Z,2.30
2023-01-31T20:16:27.808Z,2.70
2023-01-31T20:18:56.183Z,2.20
2023-01-31T20:21:24.360Z,2.17
2023-01-31T20:23:51.992Z,2.10
2023-01-31T20:26:20.833Z,2.23
2023-01-31T20:28:49.324Z,2.60
2023-01-31T20:31:17.665Z,2.83
2023-01-31T20:33:46.741Z,3.13
2023-01-31T20:36:15.354Z,1.60
2023-01-31T20:38:42.970Z,2.03
2023-01-31T20:41:10.933Z,2.43
2023-01-31T20:43:39.040Z,2.20
2023-01-31T20:46:08.764Z,2.83
2023-01-31T20:48:36.628Z,2.20
2023-01-31T20:51:06.364Z,3.63
2023-01-31T20:53:34.470Z,2.60
2023-01-31T20:56:03.462Z,2.87
2023-01-31T20:58:32.743Z,2.30
2023-01-31T21:01:00.879Z,2.03
2023-01-31T21:03:29.699Z,2.73
2023-01-31T21:05:59.328Z,2.83
2023-01-31T21:08:29.537Z,2.30
2023-01-31T21:10:59.786Z,2.80
2023-01-31T21:13:28.989Z,1.77
2023-01-31T21:15:58.423Z,2.50
2023-01-31T21:18:28.744Z,2.27
2023-01-31T21:20:56.372Z,2.67
2023-01-31T21:23:28.509Z,2.67
2023-01-31T21:26:01.722Z,2.43
2023-01-31T21:28:29.366Z,3.00
2023-01-31T21:31:00.448Z,1.60
2023-01-31T21:33:29.122Z,1.73
2023-01-31T21:35:58.301Z,2.17
2023-01-31T21:38:26.448Z,2.23
2023-01-31T21:41:15.915Z,1.60
2023-01-31T21:43:42.558Z,2.60
2023-01-31T21:46:10.621Z,1.93
2023-01-31T21:48:41.581Z,2.43
2023-01-31T21:51:11.468Z,1.17
2023-01-31T21:53:40.388Z,2.37
2023-01-31T21:56:11.480Z,2.33
2023-01-31T21:58:40.061Z,1.77
2023-01-31T22:01:10.700Z,2.33
2023-01-31T22:03:42.618Z,2.10
2023-01-31T22:06:12.618Z,1.90
2023-01-31T22:08:41.345Z,2.10
2023-01-31T22:11:12.750Z,1.60
2023-01-31T22:13:58.854Z,1.83
2023-01-31T22:16:26.821Z,2.83
2023-01-31T22:18:55.451Z,2.77
2023-01-31T22:21:25.777Z,2.27
2023-01-31T22:23:56.642Z,2.03
2023-01-31T22:26:27.720Z,3.23
2023-01-31T22:28:56.961Z,2.40
2023-01-31T22:31:24.732Z,2.17
2023-01-31T22:33:54.215Z,2.20
2023-01-31T22:36:24.067Z,3.13
2023-01-31T22:38:51.972Z,3.07
2023-01-31T22:41:20.358Z,3.83
2023-01-31T22:43:51.762Z,4.03
2023-01-31T22:46:21.980Z,2.83
2023-01-31T22:48:50.667Z,2.50
2023-01-31T22:51:20.060Z,3.23
2023-01-31T22:53:48.528Z,3.50
2023-01-31T22:56:18.546Z,3.20
2023-01-31T22:58:47.229Z,2.63
2023-01-31T23:01:17.993Z,3.80
2023-01-31T23:03:46.778Z,2.47
2023-01-31T23:06:15.267Z,2.90
2023-01-31T23:08:44.183Z,3.10
2023-01-31T23:11:14.471Z,3.30
2023-01-31T23:13:43.168Z,3.37
2023-01-31T23:16:15.904Z,3.23
2023-01-31T23:18:45.386Z,2.80
2023-01-31T23:21:15.219Z,4.10
2023-01-31T23:23:44.049Z,3.00
2023-01-31T23:26:12.132Z,3.43
2023-01-31T23:28:40.423Z,3.63
2023-01-31T23:31:08.199Z,3.80
2023-01-31T23:33:36.336Z,4.50
2023-01-31T23:36:06.111Z,3.80
2023-01-31T23:38:34.273Z,4.50
2023-01-31T23:41:01.857Z,4.37
2023-01-31T23:43:29.864Z,3.33
2023-01-31T23:45:57.444Z,3.77
2023-01-31T23:48:25.496Z,5.10
2023-01-31T23:50:53.386Z,4.80
2023-01-31T23:53:22.301Z,3.20
2023-01-31T23:55:49.897Z,3.47
2023-01-31T23:58:17.471Z,4.70
